createdAt,value
2019-01-29T00:00:39.092Z,36.20
2019-01-29T00:03:07.890Z,47.10
2019-01-29T00:05:36.521Z,32.27
2019-01-29T00:08:05.683Z,35.47
2019-01-29T00:10:34.310Z,28.67
2019-01-29T00:13:02.926Z,33.00
2019-01-29T00:15:31.587Z,25.33
2019-01-29T00:18:00.223Z,27.60
2019-01-29T00:20:28.836Z,28.83
2019-01-29T00:22:57.506Z,26.87
2019-01-29T00:25:26.198Z,31.73
2019-01-29T00:27:54.831Z,20.70
2019-01-29T00:30:24.671Z,47.23
2019-01-29T00:32:53.302Z,26.20
2019-01-29T00:35:21.936Z,21.37
2019-01-29T00:37:50.595Z,27.63
2019-01-29T00:40:19.222Z,26.97
2019-01-29T00:42:47.854Z,22.40
2019-01-29T00:45:17.914Z,26.43
2019-01-29T00:47:46.537Z,24.63
2019-01-29T00:50:16.299Z,23.17
2019-01-29T00:52:45.811Z,31.10
2019-01-29T00:55:16.051Z,25.30
2019-01-29T00:57:44.678Z,24.30
2019-01-29T01:00:19.094Z,33.33
2019-01-29T01:02:47.817Z,26.53
2019-01-29T01:05:16.740Z,27.80
2019-01-29T01:07:45.406Z,20.83
2019-01-29T01:10:16.238Z,25.17
2019-01-29T01:12:44.882Z,30.50
2019-01-29T01:15:14.396Z,19.33
2019-01-29T01:17:43.130Z,24.83
2019-01-29T01:20:13.959Z,26.33
2019-01-29T01:22:50.369Z,25.40
2019-01-29T01:25:13.552Z,17.17
2019-01-29T01:27:42.183Z,42.13
2019-01-29T01:30:13.552Z,31.40
2019-01-29T01:32:42.269Z,32.70
2019-01-29T01:35:11.001Z,28.60
2019-01-29T01:37:39.655Z,27.37
2019-01-29T01:40:13.726Z,27.93
2019-01-29T01:42:42.358Z,22.73
2019-01-29T01:45:12.127Z,24.27
2019-01-29T01:47:40.755Z,28.57
2019-01-29T01:50:11.391Z,24.67
2019-01-29T01:52:40.057Z,20.00
2019-01-29T01:55:12.430Z,20.97
2019-01-29T01:57:41.060Z,25.97
2019-01-29T02:00:12.794Z,22.47
2019-01-29T02:02:41.418Z,24.23
2019-01-29T02:05:10.425Z,22.77
2019-01-29T02:07:39.080Z,28.10
2019-01-29T02:10:19.708Z,22.83
2019-01-29T02:12:48.359Z,28.43
2019-01-29T02:15:16.981Z,21.90
2019-01-29T02:17:45.589Z,17.83
2019-01-29T02:20:16.344Z,23.93
2019-01-29T02:22:44.982Z,17.03
2019-01-29T02:25:13.613Z,23.40
2019-01-29T02:27:42.263Z,16.70
2019-01-29T02:30:16.427Z,21.30
2019-01-29T02:32:45.048Z,16.83
2019-01-29T02:38:25.989Z,19.83
2019-01-29T02:40:54.621Z,19.00
2019-01-29T02:43:23.250Z,24.57
2019-01-29T02:45:51.926Z,24.73
2019-01-29T02:48:20.546Z,28.30
2019-01-29T02:50:49.181Z,19.83
2019-01-29T02:53:18.644Z,23.43
2019-01-29T02:55:48.214Z,16.50
2019-01-29T02:58:16.841Z,18.47
2019-01-29T03:00:45.504Z,20.67
2019-01-29T03:03:14.202Z,26.10
2019-01-29T03:05:42.823Z,29.73
2019-01-29T03:08:11.554Z,25.77
2019-01-29T03:10:40.187Z,18.40
2019-01-29T03:13:08.820Z,18.37
2019-01-29T03:15:37.483Z,19.43
2019-01-29T03:18:06.110Z,18.80
2019-01-29T03:20:34.735Z,17.57
2019-01-29T03:23:03.419Z,18.27
2019-01-29T03:25:32.049Z,19.10
2019-01-29T03:28:00.677Z,16.93
2019-01-29T03:30:29.435Z,14.40
2019-01-29T03:32:58.035Z,15.60
2019-01-29T03:35:26.655Z,17.47
2019-01-29T03:37:55.320Z,15.50
2019-01-29T03:40:25.850Z,13.90
2019-01-29T03:42:54.651Z,16.67
2019-01-29T03:45:23.380Z,12.93
2019-01-29T03:47:52.001Z,17.60
2019-01-29T03:50:23.099Z,17.33
2019-01-29T03:52:51.976Z,15.93
2019-01-29T03:55:20.597Z,12.13
2019-01-29T03:57:50.396Z,17.63
2019-01-29T04:00:24.635Z,14.37
2019-01-29T04:02:53.370Z,17.23
2019-01-29T04:05:21.995Z,21.97
2019-01-29T04:07:50.765Z,13.43
2019-01-29T04:10:19.376Z,15.57
2019-01-29T04:12:48.013Z,14.77
2019-01-29T04:15:18.489Z,17.43
2019-01-29T04:17:47.222Z,18.53
2019-01-29T04:20:18.394Z,17.47
2019-01-29T04:22:47.251Z,14.60
2019-01-29T04:25:15.984Z,15.80
2019-01-29T04:27:44.622Z,17.47
2019-01-29T04:30:18.038Z,17.67
2019-01-29T04:32:46.666Z,18.30
2019-01-29T04:35:15.388Z,16.20
2019-01-29T04:37:44.046Z,18.67
2019-01-29T04:40:14.669Z,16.83
2019-01-29T04:42:43.301Z,10.70
2019-01-29T04:45:14.062Z,16.03
2019-01-29T04:47:42.876Z,15.63
2019-01-29T04:50:13.815Z,21.50
2019-01-29T04:52:42.483Z,16.73
2019-01-29T04:55:13.617Z,20.03
2019-01-29T04:57:42.257Z,28.23
2019-01-29T05:00:23.450Z,27.63
2019-01-29T05:02:52.081Z,24.90
2019-01-29T05:05:21.606Z,19.90
2019-01-29T05:07:50.399Z,30.00
2019-01-29T05:10:20.542Z,23.83
2019-01-29T05:12:49.182Z,27.70
2019-01-29T05:15:19.242Z,25.17
2019-01-29T05:17:47.862Z,17.37
2019-01-29T05:20:18.613Z,17.87
2019-01-29T05:22:47.293Z,19.47
2019-01-29T05:25:15.914Z,18.37
2019-01-29T05:27:44.568Z,75.83
2019-01-29T05:30:20.681Z,82.40
2019-01-29T05:32:49.055Z,63.47
2019-01-29T05:35:17.677Z,57.97
2019-01-29T05:37:46.383Z,56.73
2019-01-29T05:40:17.446Z,48.40
2019-01-29T05:42:46.462Z,32.57
2019-01-29T05:45:17.938Z,28.77
2019-01-29T05:47:46.649Z,62.83
2019-01-29T05:50:15.973Z,55.27
2019-01-29T05:52:44.652Z,27.80
2019-01-29T05:55:15.651Z,25.87
2019-01-29T05:57:44.279Z,21.33
2019-01-29T06:00:18.881Z,19.57
2019-01-29T06:02:48.774Z,19.77
2019-01-29T06:05:17.764Z,16.50
2019-01-29T06:07:46.436Z,17.23
2019-01-29T06:10:17.262Z,15.00
2019-01-29T06:12:45.895Z,17.23
2019-01-29T06:15:19.915Z,20.30
2019-01-29T06:17:48.675Z,17.60
2019-01-29T06:20:25.899Z,19.53
2019-01-29T06:22:54.623Z,17.77
2019-01-29T06:25:23.260Z,21.50
2019-01-29T06:27:51.916Z,19.30
2019-01-29T06:30:23.050Z,22.63
2019-01-29T06:32:51.741Z,18.87
2019-01-29T06:35:20.522Z,20.23
2019-01-29T06:37:49.145Z,21.23
2019-01-29T06:40:28.572Z,21.93
2019-01-29T06:42:57.193Z,19.20
2019-01-29T06:45:26.431Z,20.00
2019-01-29T06:47:55.487Z,29.27
2019-01-29T06:50:26.682Z,24.40
2019-01-29T06:52:56.129Z,25.93
2019-01-29T06:55:25.586Z,30.17
2019-01-29T06:57:55.885Z,31.93
2019-01-29T07:00:33.708Z,25.33
2019-01-29T07:03:02.723Z,31.40
2019-01-29T07:05:31.559Z,31.23
2019-01-29T07:08:00.314Z,28.37
2019-01-29T07:10:29.520Z,52.93
2019-01-29T07:12:58.224Z,59.27
2019-01-29T07:15:47.993Z,36.43
2019-01-29T07:18:30.272Z,30.60
2019-01-29T07:20:59.007Z,27.57
2019-01-29T07:23:27.627Z,43.47
2019-01-29T07:25:56.263Z,34.97
2019-01-29T07:28:24.954Z,33.27
2019-01-29T07:30:53.683Z,30.13
2019-01-29T07:33:22.312Z,26.93
2019-01-29T07:35:50.991Z,27.50
2019-01-29T07:38:19.622Z,24.70
2019-01-29T07:40:48.365Z,27.60
2019-01-29T07:43:17.034Z,31.97
2019-01-29T08:08:23.662Z,34.47
2019-01-29T08:10:52.303Z,39.07
2019-01-29T08:13:20.933Z,40.33
2019-01-29T08:15:49.598Z,43.10
2019-01-29T08:18:20.474Z,59.27
2019-01-29T08:20:49.038Z,48.77
2019-01-29T08:23:17.701Z,49.67
2019-01-29T08:25:47.974Z,46.47
2019-01-29T08:28:16.830Z,49.90
2019-01-29T08:30:45.638Z,61.10
2019-01-29T08:33:14.349Z,48.63
2019-01-29T08:35:42.996Z,50.47
2019-01-29T08:38:11.660Z,55.73
2019-01-29T08:40:40.355Z,49.67
2019-01-29T08:43:09.057Z,52.50
2019-01-29T08:45:37.731Z,54.47
2019-01-29T08:48:06.369Z,54.10
2019-01-29T08:50:35.006Z,56.60
2019-01-29T08:53:03.808Z,53.77
2019-01-29T08:55:32.440Z,56.53
2019-01-29T08:58:01.083Z,58.23
2019-01-29T09:00:29.886Z,59.47
2019-01-29T09:02:58.592Z,50.40
2019-01-29T09:05:27.279Z,58.57
2019-01-29T09:07:55.938Z,50.87
2019-01-29T09:10:24.686Z,62.93
2019-01-29T09:12:53.329Z,51.63
2019-01-29T09:15:22.592Z,48.40
2019-01-29T09:17:51.219Z,49.90
2019-01-29T09:20:21.919Z,52.10
2019-01-29T09:22:50.586Z,46.63
2019-01-29T09:25:22.528Z,55.50
2019-01-29T09:27:50.207Z,56.67
2019-01-29T09:30:20.058Z,53.10
2019-01-29T09:32:48.743Z,50.07
2019-01-29T09:35:17.380Z,52.53
2019-01-29T09:37:46.045Z,59.40
2019-01-29T09:40:23.966Z,52.07
2019-01-29T09:42:52.712Z,56.50
2019-01-29T09:45:21.711Z,53.07
2019-01-29T09:47:50.605Z,47.37
2019-01-29T09:50:23.724Z,51.03
2019-01-29T09:52:53.057Z,45.20
2019-01-29T09:55:29.343Z,58.23
2019-01-29T09:57:54.168Z,62.33
2019-01-29T10:00:25.742Z,56.13
2019-01-29T10:02:54.382Z,61.77
2019-01-29T10:05:23.307Z,46.90
2019-01-29T10:07:51.953Z,51.50
2019-01-29T10:10:20.654Z,66.07
2019-01-29T10:12:50.134Z,152.37
2019-01-29T10:15:33.429Z,78.50
2019-01-29T10:18:02.574Z,82.20
2019-01-29T10:20:31.379Z,59.40
2019-01-29T10:23:00.067Z,60.10
2019-01-29T10:25:37.117Z,62.30
2019-01-29T10:27:59.147Z,54.67
2019-01-29T10:30:27.863Z,59.00
2019-01-29T10:32:56.816Z,71.73
2019-01-29T10:35:27.814Z,54.33
2019-01-29T10:37:56.456Z,56.50
2019-01-29T10:40:27.099Z,56.40
2019-01-29T10:42:56.600Z,68.57
2019-01-29T10:45:26.950Z,60.17
2019-01-29T10:47:55.687Z,64.73
2019-01-29T10:50:27.021Z,80.70
2019-01-29T10:52:56.524Z,62.57
2019-01-29T10:55:25.253Z,70.53
2019-01-29T10:57:54.098Z,61.20
2019-01-29T11:00:25.703Z,70.00
2019-01-29T11:02:54.435Z,69.30
2019-01-29T11:05:24.347Z,63.10
2019-01-29T11:07:53.047Z,63.47
2019-01-29T11:10:22.184Z,91.63
2019-01-29T11:12:50.818Z,69.00
2019-01-29T11:15:36.927Z,63.23
2019-01-29T11:18:08.953Z,70.07
2019-01-29T11:20:37.878Z,59.63
2019-01-29T11:23:06.561Z,57.80
2019-01-29T11:25:35.202Z,60.30
2019-01-29T11:28:03.901Z,57.67
2019-01-29T11:30:33.530Z,61.30
2019-01-29T11:33:02.162Z,54.93
2019-01-29T11:35:30.866Z,63.33
2019-01-29T11:37:59.623Z,82.30
2019-01-29T11:40:30.790Z,63.13
2019-01-29T11:42:59.421Z,64.63
2019-01-29T11:45:33.392Z,56.50
2019-01-29T11:48:02.125Z,66.37
2019-01-29T11:50:30.745Z,52.97
2019-01-29T11:52:59.574Z,61.77
2019-01-29T11:55:28.264Z,69.23
2019-01-29T11:57:56.892Z,70.87
2019-01-29T12:00:37.980Z,68.47
2019-01-29T12:03:06.877Z,69.00
2019-01-29T12:05:35.569Z,63.97
2019-01-29T12:08:04.793Z,55.23
2019-01-29T12:10:34.408Z,66.93
2019-01-29T12:13:03.053Z,61.47
2019-01-29T12:15:32.651Z,65.27
2019-01-29T12:18:01.283Z,55.40
2019-01-29T12:20:29.989Z,62.33
2019-01-29T12:22:58.646Z,60.17
2019-01-29T12:25:27.432Z,52.77
2019-01-29T12:27:56.055Z,65.10
2019-01-29T12:30:27.080Z,66.07
2019-01-29T12:32:56.373Z,63.43
2019-01-29T12:35:25.058Z,56.67
2019-01-29T12:37:53.735Z,51.10
2019-01-29T12:40:22.433Z,67.83
2019-01-29T12:42:51.050Z,58.93
2019-01-29T12:45:20.076Z,50.97
2019-01-29T12:47:48.875Z,47.07
2019-01-29T12:50:28.746Z,59.03
2019-01-29T12:53:04.702Z,53.80
2019-01-29T12:55:33.486Z,62.77
2019-01-29T12:58:02.111Z,66.80
2019-01-29T13:00:41.286Z,72.10
2019-01-29T13:03:09.987Z,72.43
2019-01-29T13:05:38.706Z,92.47
2019-01-29T13:08:07.655Z,77.90
2019-01-29T13:10:36.458Z,82.23
2019-01-29T13:13:05.590Z,85.60
2019-01-29T13:15:35.518Z,70.10
2019-01-29T13:18:05.665Z,66.70
2019-01-29T13:20:34.366Z,73.07
2019-01-29T13:23:03.040Z,70.73
2019-01-29T13:25:31.841Z,72.77
2019-01-29T13:28:00.468Z,68.10
2019-01-29T13:30:31.541Z,81.27
2019-01-29T13:33:00.178Z,75.03
2019-01-29T13:35:31.265Z,73.47
2019-01-29T13:38:00.195Z,75.93
2019-01-29T13:40:29.098Z,77.77
2019-01-29T13:42:57.790Z,72.70
2019-01-29T13:45:26.916Z,82.33
2019-01-29T13:47:55.623Z,75.73
2019-01-29T13:50:36.338Z,78.60
2019-01-29T13:53:05.765Z,74.83
2019-01-29T13:55:34.567Z,70.33
2019-01-29T13:58:03.299Z,73.17
2019-01-29T14:00:33.655Z,74.90
2019-01-29T14:03:02.902Z,66.60
2019-01-29T14:05:31.808Z,68.30
2019-01-29T14:08:00.506Z,74.10
2019-01-29T14:10:29.211Z,73.10
2019-01-29T14:12:57.933Z,69.73
2019-01-29T14:15:31.159Z,65.50
2019-01-29T14:17:59.951Z,76.67
2019-01-29T14:20:28.689Z,69.90
2019-01-29T14:22:57.389Z,75.00
2019-01-29T14:25:26.086Z,71.67
2019-01-29T14:27:54.952Z,72.47
2019-01-29T14:30:26.154Z,63.27
2019-01-29T14:32:54.853Z,66.10
2019-01-29T14:35:23.587Z,67.63
2019-01-29T14:38:01.320Z,66.73
2019-01-29T14:40:34.701Z,73.07
2019-01-29T14:43:03.401Z,79.40
2019-01-29T14:45:33.110Z,67.83
2019-01-29T14:48:01.843Z,79.00
2019-01-29T14:50:31.644Z,121.63
2019-01-29T14:53:00.362Z,103.10
2019-01-29T14:55:29.195Z,114.13
2019-01-29T14:57:57.909Z,129.37
2019-01-29T15:00:34.524Z,121.03
2019-01-29T15:03:03.325Z,113.60
2019-01-29T15:05:32.041Z,106.13
2019-01-29T15:08:00.870Z,106.13
2019-01-29T15:10:34.556Z,119.87
2019-01-29T15:13:03.263Z,106.73
2019-01-29T15:15:36.717Z,119.57
2019-01-29T15:18:07.692Z,107.60
2019-01-29T15:20:36.393Z,104.27
2019-01-29T15:23:05.922Z,108.77
2019-01-29T15:25:34.725Z,101.37
2019-01-29T15:28:03.534Z,114.40
2019-01-29T15:30:32.878Z,84.63
2019-01-29T15:33:01.590Z,113.33
2019-01-29T15:35:30.297Z,97.03
2019-01-29T15:37:59.065Z,99.63
2019-01-29T15:40:27.774Z,82.63
2019-01-29T15:42:56.583Z,105.50
2019-01-29T15:45:26.516Z,88.17
2019-01-29T15:47:55.213Z,81.77
2019-01-29T15:50:28.731Z,81.33
2019-01-29T15:52:57.571Z,74.87
2019-01-29T15:55:26.370Z,71.60
2019-01-29T15:57:55.067Z,72.00
2019-01-29T16:00:32.696Z,75.30
2019-01-29T16:03:01.502Z,63.57
2019-01-29T16:05:32.617Z,77.97
2019-01-29T16:08:01.438Z,84.07
2019-01-29T16:10:39.834Z,85.83
2019-01-29T16:13:05.931Z,81.80
2019-01-29T16:15:34.878Z,82.77
2019-01-29T16:18:03.680Z,71.93
2019-01-29T16:20:32.401Z,69.30
2019-01-29T16:23:01.142Z,62.33
2019-01-29T16:25:34.380Z,69.13
2019-01-29T16:28:03.111Z,67.30
2019-01-29T16:30:36.028Z,69.17
2019-01-29T16:33:05.034Z,57.13
2019-01-29T16:35:35.953Z,65.80
2019-01-29T16:38:06.462Z,63.53
2019-01-29T16:40:43.866Z,72.03
2019-01-29T16:43:12.782Z,106.60
2019-01-29T16:45:41.619Z,76.40
2019-01-29T16:48:11.168Z,67.97
2019-01-29T16:50:39.982Z,53.53
2019-01-29T16:53:09.088Z,57.40
2019-01-29T16:55:38.025Z,52.50
2019-01-29T16:58:07.838Z,47.77
2019-01-29T17:00:38.892Z,54.23
2019-01-29T17:03:07.631Z,49.33
2019-01-29T17:05:36.340Z,51.57
2019-01-29T17:08:05.544Z,49.87
2019-01-29T17:10:34.610Z,42.23
2019-01-29T17:13:04.858Z,32.57
2019-01-29T17:15:35.357Z,29.60
2019-01-29T17:18:04.492Z,24.13
2019-01-29T17:20:38.482Z,27.80
2019-01-29T17:23:08.288Z,20.10
2019-01-29T17:25:37.037Z,18.03
2019-01-29T17:28:05.852Z,22.40
2019-01-29T17:30:36.147Z,24.20
2019-01-29T17:33:05.804Z,17.60
2019-01-29T17:35:36.482Z,23.53
2019-01-29T17:38:05.381Z,27.87
2019-01-29T17:40:34.131Z,38.17
2019-01-29T17:43:02.924Z,25.43
2019-01-29T17:45:34.556Z,30.57
2019-01-29T17:48:03.301Z,22.93
2019-01-29T17:50:37.487Z,19.77
2019-01-29T17:53:06.263Z,19.97
2019-01-29T17:55:36.240Z,16.60
2019-01-29T17:58:06.697Z,21.03
2019-01-29T18:00:38.515Z,35.60
2019-01-29T18:03:07.751Z,128.53
2019-01-29T18:05:36.539Z,93.90
2019-01-29T18:08:05.756Z,106.03
2019-01-29T18:10:34.611Z,75.97
2019-01-29T18:13:03.322Z,114.50
2019-01-29T18:15:32.419Z,112.13
2019-01-29T18:18:01.164Z,101.53
2019-01-29T18:20:29.870Z,96.43
2019-01-29T18:23:00.053Z,98.07
2019-01-29T18:25:28.893Z,84.03
2019-01-29T18:28:01.325Z,80.33
2019-01-29T18:30:33.092Z,88.50
2019-01-29T18:33:01.803Z,84.03
2019-01-29T18:35:30.509Z,61.10
2019-01-29T18:37:59.356Z,47.97
2019-01-29T18:40:37.119Z,45.93
2019-01-29T18:43:05.959Z,43.50
2019-01-29T18:45:34.655Z,36.73
2019-01-29T18:48:03.364Z,36.33
2019-01-29T18:50:32.196Z,32.60
2019-01-29T18:53:00.896Z,34.10
2019-01-29T18:55:29.597Z,39.17
2019-01-29T18:57:58.356Z,37.57
2019-01-29T19:00:30.289Z,47.73
2019-01-29T19:02:58.967Z,46.63
2019-01-29T19:05:27.799Z,50.03
2019-01-29T19:07:56.498Z,47.10
2019-01-29T19:10:25.399Z,46.37
2019-01-29T19:12:55.569Z,49.57
2019-01-29T19:15:29.061Z,53.63
2019-01-29T19:17:57.767Z,45.57
2019-01-29T19:20:27.302Z,49.93
2019-01-29T19:22:56.212Z,44.90
2019-01-29T19:25:26.584Z,54.33
2019-01-29T19:27:55.338Z,47.83
2019-01-29T19:30:31.663Z,58.60
2019-01-29T19:33:00.413Z,49.03
2019-01-29T19:35:29.317Z,60.10
2019-01-29T19:37:58.130Z,58.37
2019-01-29T19:40:26.964Z,49.37
2019-01-29T19:42:55.669Z,31.63
2019-01-29T19:45:32.830Z,34.67
2019-01-29T19:48:01.529Z,29.33
2019-01-29T19:50:32.150Z,37.47
2019-01-29T19:53:00.982Z,36.80
2019-01-29T19:55:29.774Z,33.40
2019-01-29T19:58:08.391Z,47.27
2019-01-29T20:00:32.253Z,62.93
2019-01-29T20:03:00.960Z,60.27
2019-01-29T20:05:29.856Z,44.63
2019-01-29T20:07:58.595Z,48.00
2019-01-29T20:10:28.761Z,41.27
2019-01-29T20:12:57.559Z,43.47
2019-01-29T20:15:26.895Z,53.80
2019-01-29T20:17:57.601Z,64.67
2019-01-29T20:20:31.816Z,42.77
2019-01-29T20:23:07.670Z,49.07
2019-01-29T20:25:32.618Z,42.50
2019-01-29T20:28:01.349Z,86.63
2019-01-29T20:30:32.860Z,102.07
2019-01-29T20:33:01.562Z,77.70
2019-01-29T20:35:30.400Z,100.90
2019-01-29T20:37:59.111Z,108.33
2019-01-29T20:40:27.913Z,99.33
2019-01-29T20:42:56.673Z,127.03
2019-01-29T20:45:25.463Z,129.50
2019-01-29T20:47:56.973Z,135.67
2019-01-29T20:50:35.567Z,81.50
2019-01-29T20:53:04.668Z,48.00
2019-01-29T20:55:33.380Z,40.33
2019-01-29T20:58:02.092Z,37.13
2019-01-29T21:00:36.040Z,45.13
2019-01-29T21:03:05.341Z,33.63
2019-01-29T21:05:34.178Z,67.13
2019-01-29T21:08:04.448Z,62.33
2019-01-29T21:10:33.255Z,56.93
2019-01-29T21:13:02.056Z,55.67
2019-01-29T21:15:38.029Z,48.43
2019-01-29T21:18:01.278Z,47.30
2019-01-29T21:20:31.818Z,62.20
2019-01-29T21:23:00.624Z,59.67
2019-01-29T21:25:29.415Z,51.93
2019-01-29T21:27:58.152Z,58.33
2019-01-29T21:30:31.866Z,64.47
2019-01-29T21:33:00.694Z,52.30
2019-01-29T21:35:29.523Z,52.83
2019-01-29T21:37:58.332Z,54.03
2019-01-29T21:40:27.131Z,49.13
2019-01-29T21:42:55.973Z,48.70
2019-01-29T21:45:25.066Z,57.07
2019-01-29T21:47:56.064Z,56.37
2019-01-29T21:50:33.030Z,56.40
2019-01-29T21:53:02.024Z,54.37
2019-01-29T21:55:30.652Z,59.30
2019-01-29T21:57:59.680Z,56.90
2019-01-29T22:00:40.316Z,53.77
2019-01-29T22:03:09.143Z,53.67
2019-01-29T22:05:38.044Z,62.87
2019-01-29T22:08:07.179Z,51.43
2019-01-29T22:10:35.909Z,47.07
2019-01-29T22:13:05.146Z,60.83
2019-01-29T22:15:33.784Z,60.67
2019-01-29T22:18:02.522Z,70.53
2019-01-29T22:20:31.222Z,65.37
2019-01-29T22:22:59.852Z,68.20
2019-01-29T22:25:28.585Z,66.13
2019-01-29T22:27:57.207Z,61.20
2019-01-29T22:30:31.624Z,67.87
2019-01-29T22:33:00.496Z,62.47
2019-01-29T22:35:29.122Z,68.33
2019-01-29T22:37:57.768Z,63.30
2019-01-29T22:40:28.435Z,125.40
2019-01-29T22:42:57.257Z,59.07
2019-01-29T22:45:26.035Z,88.43
2019-01-29T22:47:54.655Z,103.57
2019-01-29T22:50:27.963Z,91.57
2019-01-29T22:52:56.704Z,81.23
2019-01-29T22:55:25.438Z,117.47
2019-01-29T22:57:54.270Z,72.50
2019-01-29T23:01:00.083Z,92.23
2019-01-29T23:03:31.532Z,81.63
2019-01-29T23:06:20.824Z,99.93
2019-01-29T23:08:49.465Z,167.53
2019-01-29T23:11:18.103Z,151.10
2019-01-29T23:13:46.762Z,83.07
2019-01-29T23:16:15.390Z,90.33
2019-01-29T23:18:44.018Z,125.20
2019-01-29T23:21:12.683Z,185.43
2019-01-29T23:23:41.314Z,98.80
2019-01-29T23:26:09.951Z,121.83
2019-01-29T23:28:38.623Z,159.13
2019-01-29T23:31:07.353Z,77.30
